Cid, North Carolina
Current Conditions -  °F | °C
As of 5:15 PM on Sunday 23 Nov 2014 (Local Time) from KEXX Reporting Station
Moderate Rain Moderate Rain  
Wind Chill: 54°   Ceiling: 600
Heat Index: 54°   Visibility: 7mi
Dew Point: 53°   Wind: 7mph
Humidity: 97%   Direction: 90°E
Pressure: 29.89"   Gusts: NA
Location:  35.7974°N, 80.2541°W
Report Text: KEXX 232215Z AUTO 09006KT 7SM RA OVC006 12/12 A2989 RMK AO2 P0003 T01230118
Loading
Personal Weather Stations






























Interactive Weather Map New forecast layout! Learn more

10-Day Weather Forecast

Advertisements
Track Severe Weather on mobile